Time;durP1;ratioP1;P1;durP2;ratioP2;P2;SDS_P1;SDS_P2;PMS_P1;PMS_P2;Temp;Humidity;BMP_temperature;BMP_pressure;BME280_temperature;BME280_humidity;BME280_pressure;Samples;Min_cycle;Max_cycle;Signal;HPM_P1;HPM_P2
2024/03/20 00:01:03;;;;;;;41.17;21.95;;;;;;;;;;4945037;28;20066;-56
2024/03/20 00:03:49;;;;;;;36.45;20.42;;;;;;;;;;4945230;28;20578;-56
2024/03/20 00:06:42;;;;;;;41.30;20.95;;;;;;;;;;4945019;28;20067;-60
2024/03/20 00:09:36;;;;;;;46.35;24.67;;;;;;;;;;4949670;28;20940;-59
2024/03/20 00:12:28;;;;;;;46.72;24.10;;;;;;;;;;4945891;28;20059;-60
2024/03/20 00:15:21;;;;;;;47.45;25.85;;;;;;;;;;4948301;28;20062;-60
2024/03/20 00:18:07;;;;;;;45.45;24.45;;;;;;;;;;4996789;28;20132;-52
2024/03/20 00:20:43;;;;;;;48.40;24.95;;;;;;;;;;4996133;28;20057;-59
2024/03/20 00:23:09;;;;;;;47.25;25.13;;;;;;;;;;4979643;28;20054;-58
2024/03/20 00:25:38;;;;;;;47.53;24.50;;;;;;;;;;4980637;28;20061;-58
2024/03/20 00:28:10;;;;;;;45.97;24.88;;;;;;;;;;4980166;28;20050;-58
2024/03/20 00:30:37;;;;;;;53.17;26.77;;;;;;;;;;4980554;28;20065;-58
2024/03/20 00:33:09;;;;;;;48.53;25.48;;;;;;;;;;4983683;28;20435;-57
2024/03/20 00:35:37;;;;;;;47.40;24.45;;;;;;;;;;4978946;28;20557;-60
2024/03/20 00:38:04;;;;;;;52.30;27.02;;;;;;;;;;4971745;28;20515;-59
2024/03/20 00:40:37;;;;;;;57.25;27.00;;;;;;;;;;4995906;28;20061;-59
2024/03/20 00:43:03;;;;;;;52.25;26.52;;;;;;;;;;4973258;28;20480;-59
2024/03/20 00:45:36;;;;;;;47.85;25.33;;;;;;;;;;4981696;28;20745;-60
2024/03/20 00:48:02;;;;;;;53.40;24.95;;;;;;;;;;4983002;28;20061;-59
2024/03/20 00:50:28;;;;;;;48.65;24.30;;;;;;;;;;4975370;28;20053;-58
2024/03/20 00:53:01;;;;;;;48.63;23.48;;;;;;;;;;4977683;28;20074;-59
2024/03/20 00:55:27;;;;;;;54.25;25.17;;;;;;;;;;4978227;28;20072;-59
2024/03/20 00:58:00;;;;;;;52.22;23.35;;;;;;;;;;4976936;28;20054;-60
2024/03/20 01:00:26;;;;;;;55.40;27.15;;;;;;;;;;4981800;28;20395;-59
2024/03/20 01:02:54;;;;;;;61.80;27.55;;;;;;;;;;4974603;28;20061;-60
2024/03/20 01:05:26;;;;;;;61.20;27.83;;;;;;;;;;4973801;28;20045;-59
2024/03/20 01:07:53;;;;;;;46.72;24.95;;;;;;;;;;4978093;28;20069;-59
2024/03/20 01:10:26;;;;;;;53.38;26.13;;;;;;;;;;4978817;28;20061;-59
2024/03/20 01:13:12;;;;;;;48.30;23.65;;;;;;;;;;4974325;28;20379;-51
2024/03/20 01:16:18;;;;;;;56.15;25.20;;;;;;;;;;4969313;28;20058;-61
2024/03/20 01:19:11;;;;;;;50.83;24.48;;;;;;;;;;4957278;28;20054;-62
2024/03/20 01:22:04;;;;;;;39.90;21.23;;;;;;;;;;4976732;28;20059;-62
2024/03/20 01:24:50;;;;;;;40.88;21.13;;;;;;;;;;4961549;28;20535;-62
2024/03/20 01:27:43;;;;;;;44.15;20.33;;;;;;;;;;4961102;28;20070;-62
2024/03/20 01:30:30;;;;;;;44.10;21.75;;;;;;;;;;4964256;28;20917;-63
2024/03/20 01:33:22;;;;;;;36.25;19.10;;;;;;;;;;4962381;28;20393;-62
2024/03/20 01:36:08;;;;;;;42.72;21.45;;;;;;;;;;4963753;28;20054;-62
2024/03/20 01:39:02;;;;;;;35.33;19.30;;;;;;;;;;4975869;28;20059;-62
2024/03/20 01:41:54;;;;;;;45.30;21.60;;;;;;;;;;4965316;28;20059;-59
2024/03/20 01:44:40;;;;;;;51.88;23.05;;;;;;;;;;4960135;28;20066;-53
2024/03/20 01:47:33;;;;;;;47.50;22.48;;;;;;;;;;4975429;28;20578;-49
2024/03/20 01:50:19;;;;;;;49.60;22.25;;;;;;;;;;4962093;28;20062;-51
2024/03/20 01:53:14;;;;;;;44.10;23.35;;;;;;;;;;4960287;28;20058;-51
2024/03/20 01:56:00;;;;;;;46.47;23.85;;;;;;;;;;4965965;28;20069;-52
2024/03/20 01:58:55;;;;;;;48.22;23.23;;;;;;;;;;4960359;28;20054;-53
2024/03/20 02:01:48;;;;;;;56.45;24.60;;;;;;;;;;4975756;28;20066;-63
2024/03/20 02:04:41;;;;;;;57.08;25.75;;;;;;;;;;4959671;28;20054;-62
2024/03/20 02:07:27;;;;;;;55.63;24.33;;;;;;;;;;4964020;28;20448;-62
2024/03/20 02:10:20;;;;;;;55.17;24.85;;;;;;;;;;4965712;28;20070;-49
2024/03/20 02:13:07;;;;;;;53.83;23.98;;;;;;;;;;4963721;28;20660;-51
2024/03/20 02:15:59;;;;;;;47.50;21.92;;;;;;;;;;4975755;28;20535;-49
2024/03/20 02:18:59;;;;;;;47.47;22.10;;;;;;;;;;4986537;28;20066;-46
2024/03/20 02:21:51;;;;;;;53.58;24.08;;;;;;;;;;4982037;28;20066;-48
2024/03/20 02:24:37;;;;;;;52.67;23.63;;;;;;;;;;4987249;28;20062;-48
2024/03/20 02:27:30;;;;;;;48.28;21.75;;;;;;;;;;4985754;28;20116;-50
2024/03/20 02:30:16;;;;;;;50.35;22.25;;;;;;;;;;4985870;28;20062;-50
2024/03/20 02:33:09;;;;;;;53.45;22.65;;;;;;;;;;4987123;28;20059;-51
2024/03/20 02:35:56;;;;;;;44.03;21.13;;;;;;;;;;4982741;28;20134;-52
2024/03/20 02:38:48;;;;;;;41.70;20.80;;;;;;;;;;4981979;28;20058;-63
2024/03/20 02:41:34;;;;;;;42.05;20.30;;;;;;;;;;4982403;28;20089;-62
2024/03/20 02:44:27;;;;;;;39.83;19.63;;;;;;;;;;4981350;28;20065;-62
2024/03/20 02:47:13;;;;;;;48.50;21.38;;;;;;;;;;4978587;28;20054;-62
2024/03/20 02:50:06;;;;;;;39.92;20.13;;;;;;;;;;4981813;28;20110;-62
2024/03/20 02:52:52;;;;;;;40.47;19.60;;;;;;;;;;4984138;28;20572;-62
2024/03/20 02:55:46;;;;;;;44.47;19.92;;;;;;;;;;4983755;28;20076;-62
2024/03/20 02:58:32;;;;;;;48.80;20.77;;;;;;;;;;4983003;28;20053;-59
2024/03/20 03:01:24;;;;;;;49.10;21.33;;;;;;;;;;4980323;28;20050;-59
2024/03/20 03:04:10;;;;;;;31.75;16.73;;;;;;;;;;4986041;28;20061;-59
2024/03/20 03:07:03;;;;;;;36.85;18.40;;;;;;;;;;4979770;28;20076;-59
2024/03/20 03:09:49;;;;;;;36.20;18.15;;;;;;;;;;4981864;28;20061;-63
2024/03/20 03:12:49;;;;;;;37.08;18.55;;;;;;;;;;4983458;28;20053;-63
2024/03/20 03:15:35;;;;;;;36.28;17.92;;;;;;;;;;4979552;28;20050;-63
2024/03/20 03:18:35;;;;;;;28.13;15.38;;;;;;;;;;4988686;28;20069;-63
2024/03/20 03:21:20;;;;;;;38.38;18.52;;;;;;;;;;4984199;28;20070;-62
2024/03/20 03:24:13;;;;;;;33.78;17.27;;;;;;;;;;4985612;28;20552;-63
2024/03/20 03:26:59;;;;;;;32.05;16.02;;;;;;;;;;4983121;28;20049;-60
2024/03/20 03:29:52;;;;;;;34.65;17.80;;;;;;;;;;4983341;28;20057;-60
2024/03/20 03:32:39;;;;;;;51.35;20.52;;;;;;;;;;4980951;28;20076;-60
2024/03/20 03:35:32;;;;;;;35.55;18.00;;;;;;;;;;4978682;28;20964;-62
2024/03/20 03:38:18;;;;;;;30.88;16.92;;;;;;;;;;4981888;28;20109;-63
2024/03/20 03:41:11;;;;;;;39.50;19.48;;;;;;;;;;4983091;28;20108;-63
2024/03/20 03:43:57;;;;;;;38.03;18.05;;;;;;;;;;4980640;28;20061;-62
2024/03/20 03:46:53;;;;;;;43.13;18.92;;;;;;;;;;4994185;28;20050;-63
2024/03/20 03:49:47;;;;;;;25.65;14.93;;;;;;;;;;4995149;28;20077;-63
2024/03/20 03:52:39;;;;;;;31.95;16.55;;;;;;;;;;4978491;28;20436;-63
2024/03/20 03:55:29;;;;;;;45.28;20.17;;;;;;;;;;4977672;28;20462;-60
2024/03/20 03:58:21;;;;;;;25.45;14.70;;;;;;;;;;4976723;28;20194;-60
2024/03/20 04:01:08;;;;;;;40.15;19.70;;;;;;;;;;4981611;28;20053;-60
2024/03/20 04:04:00;;;;;;;36.35;17.60;;;;;;;;;;4978157;28;20065;-59
2024/03/20 04:06:53;;;;;;;41.75;19.17;;;;;;;;;;4979987;28;20508;-60
2024/03/20 04:09:46;;;;;;;37.67;17.45;;;;;;;;;;4978852;28;20069;-59
2024/03/20 04:12:32;;;;;;;40.97;19.00;;;;;;;;;;4977657;28;20053;-60
2024/03/20 04:15:25;;;;;;;37.33;18.20;;;;;;;;;;4994912;28;20053;-60
2024/03/20 04:18:25;;;;;;;40.35;19.25;;;;;;;;;;4979315;28;20057;-60
2024/03/20 04:21:11;;;;;;;30.35;16.63;;;;;;;;;;4975005;28;20050;-59
2024/03/20 04:24:04;;;;;;;45.13;20.65;;;;;;;;;;4981698;28;20060;-60
2024/03/20 04:26:50;;;;;;;47.38;19.58;;;;;;;;;;4975902;28;20053;-59
2024/03/20 04:29:43;;;;;;;53.28;21.90;;;;;;;;;;4978834;28;20057;-59
2024/03/20 04:32:30;;;;;;;37.33;17.83;;;;;;;;;;4978035;28;20077;-63
2024/03/20 04:35:22;;;;;;;46.00;20.60;;;;;;;;;;4979131;28;20072;-50
2024/03/20 04:38:08;;;;;;;47.85;21.55;;;;;;;;;;4976355;28;20057;-48
2024/03/20 04:41:01;;;;;;;52.92;22.42;;;;;;;;;;4977360;28;20069;-49
2024/03/20 04:43:47;;;;;;;36.97;17.70;;;;;;;;;;4978053;28;20066;-51
2024/03/20 04:46:40;;;;;;;42.83;19.73;;;;;;;;;;4980110;28;22226;-49
2024/03/20 04:49:26;;;;;;;49.63;20.55;;;;;;;;;;4975657;28;20113;-49
2024/03/20 04:52:21;;;;;;;33.95;16.92;;;;;;;;;;4978921;28;20080;-60
2024/03/20 04:55:07;;;;;;;56.75;22.05;;;;;;;;;;4972862;28;20057;-60
2024/03/20 04:58:00;;;;;;;60.05;22.15;;;;;;;;;;4980270;28;20436;-60
2024/03/20 05:00:46;;;;;;;57.50;22.63;;;;;;;;;;4974139;28;20427;-60
2024/03/20 05:03:39;;;;;;;48.72;20.52;;;;;;;;;;4982478;28;20061;-52
2024/03/20 05:06:25;;;;;;;41.95;19.52;;;;;;;;;;4978078;28;20058;-51
2024/03/20 05:09:18;;;;;;;49.08;20.88;;;;;;;;;;4976338;28;20062;-51
2024/03/20 05:12:04;;;;;;;56.03;22.60;;;;;;;;;;4981859;28;20534;-46
2024/03/20 05:14:57;;;;;;;52.70;22.48;;;;;;;;;;4976319;28;20064;-47
2024/03/20 05:17:50;;;;;;;82.75;26.88;;;;;;;;;;4971372;28;20077;-47
2024/03/20 05:20:43;;;;;;;54.80;22.90;;;;;;;;;;4974753;28;20117;-63
2024/03/20 05:23:29;;;;;;;49.60;21.40;;;;;;;;;;4973092;28;20073;-63
2024/03/20 05:26:22;;;;;;;82.95;26.23;;;;;;;;;;4986617;28;20077;-62
2024/03/20 05:29:08;;;;;;;51.05;20.65;;;;;;;;;;4978180;28;20057;-59
2024/03/20 05:32:01;;;;;;;76.25;26.63;;;;;;;;;;4975586;28;21872;-49
2024/03/20 05:34:47;;;;;;;61.47;24.80;;;;;;;;;;4975325;28;20061;-51
2024/03/20 05:37:40;;;;;;;71.28;25.08;;;;;;;;;;4980585;28;20499;-51
2024/03/20 05:40:26;;;;;;;73.15;24.73;;;;;;;;;;4982710;28;20058;-53
2024/03/20 05:43:19;;;;;;;74.50;25.92;;;;;;;;;;4980625;28;20069;-51
2024/03/20 05:46:05;;;;;;;58.92;23.45;;;;;;;;;;4979874;28;20081;-52
2024/03/20 05:48:59;;;;;;;56.90;22.98;;;;;;;;;;4976034;28;20058;-48
2024/03/20 05:51:46;;;;;;;79.20;26.45;;;;;;;;;;4974792;28;20066;-61
2024/03/20 05:54:39;;;;;;;53.25;22.77;;;;;;;;;;4977114;28;20068;-61
2024/03/20 05:57:25;;;;;;;92.63;29.70;;;;;;;;;;4977883;28;20072;-60
2024/03/20 06:00:27;;;;;;;86.38;28.45;;;;;;;;;;4977865;28;20061;-61
2024/03/20 06:03:14;;;;;;;88.45;28.10;;;;;;;;;;4976797;28;20066;-61
2024/03/20 06:06:07;;;;;;;66.72;24.95;;;;;;;;;;4973450;28;20050;-49
2024/03/20 06:08:59;;;;;;;60.50;24.52;;;;;;;;;;4975371;28;20065;-59
2024/03/20 06:11:46;;;;;;;82.50;27.90;;;;;;;;;;4982255;28;20057;-59
2024/03/20 06:14:38;;;;;;;56.47;22.65;;;;;;;;;;4986609;28;20049;-59
2024/03/20 06:17:32;;;;;;;63.20;23.60;;;;;;;;;;4982426;28;20101;-59
2024/03/20 06:20:23;;;;;;;68.93;23.77;;;;;;;;;;4983363;28;20057;-59
2024/03/20 06:23:09;;;;;;;49.17;19.92;;;;;;;;;;4984008;28;20121;-59
2024/03/20 06:26:02;;;;;;;129.23;30.17;;;;;;;;;;4981550;28;20065;-61
2024/03/20 06:28:49;;;;;;;75.60;26.00;;;;;;;;;;4986336;28;20058;-61
2024/03/20 06:31:42;;;;;;;82.57;26.13;;;;;;;;;;4997918;28;20062;-60
2024/03/20 06:34:28;;;;;;;107.57;29.67;;;;;;;;;;4985659;28;20523;-52
2024/03/20 06:37:20;;;;;;;140.95;32.60;;;;;;;;;;4989439;28;20058;-53
2024/03/20 06:40:07;;;;;;;123.22;30.10;;;;;;;;;;4991579;28;20065;-51
2024/03/20 06:43:02;;;;;;;95.85;27.63;;;;;;;;;;4987178;28;20066;-51
2024/03/20 06:45:49;;;;;;;155.88;31.05;;;;;;;;;;4985530;28;20065;-53
2024/03/20 06:48:41;;;;;;;138.90;31.02;;;;;;;;;;4987932;28;20054;-53
2024/03/20 06:51:32;;;;;;;175.13;31.88;;;;;;;;;;4978637;28;20582;-51
2024/03/20 06:54:20;;;;;;;208.23;35.78;;;;;;;;;;4987253;28;20109;-60
2024/03/20 06:57:08;;;;;;;140.23;31.27;;;;;;;;;;4980640;28;20499;-60
2024/03/20 06:59:59;;;;;;;194.43;35.88;;;;;;;;;;4989091;28;20129;-60
2024/03/20 07:02:46;;;;;;;203.57;35.97;;;;;;;;;;4986421;28;20066;-52
2024/03/20 07:05:39;;;;;;;254.18;38.90;;;;;;;;;;4980050;28;20066;-63
2024/03/20 07:08:32;;;;;;;221.40;35.25;;;;;;;;;;4981015;28;20057;-63
2024/03/20 07:11:25;;;;;;;416.15;45.33;;;;;;;;;;4986835;28;20508;-63
2024/03/20 07:14:11;;;;;;;431.17;47.47;;;;;;;;;;4986568;28;20061;-63
2024/03/20 07:17:12;;;;;;;237.70;35.15;;;;;;;;;;4981770;28;20056;-64
2024/03/20 07:20:06;;;;;;;109.90;28.25;;;;;;;;;;4985412;28;20649;-63
2024/03/20 07:22:57;;;;;;;168.73;31.27;;;;;;;;;;4982087;28;20077;-61
2024/03/20 07:25:44;;;;;;;179.52;32.58;;;;;;;;;;4980588;28;20508;-62
2024/03/20 07:28:38;;;;;;;105.40;28.80;;;;;;;;;;4984563;28;20070;-62
2024/03/20 07:31:22;;;;;;;236.57;35.10;;;;;;;;;;4982939;28;20058;-60
2024/03/20 07:34:15;;;;;;;127.18;28.88;;;;;;;;;;4997988;28;20060;-61
2024/03/20 07:37:01;;;;;;;164.30;32.08;;;;;;;;;;4980056;28;20409;-61
2024/03/20 07:39:54;;;;;;;249.00;31.25;;;;;;;;;;4986222;28;20116;-61
2024/03/20 07:42:47;;;;;;;136.02;30.00;;;;;;;;;;4983742;28;20062;-61
2024/03/20 07:45:40;;;;;;;152.75;30.38;;;;;;;;;;4977493;28;20077;-60
2024/03/20 07:48:28;;;;;;;148.93;31.55;;;;;;;;;;4981585;28;20625;-60
2024/03/20 07:51:41;;;;;;;80.90;25.70;;;;;;;;;;4997951;28;20104;-62
2024/03/20 07:54:27;;;;;;;176.93;31.67;;;;;;;;;;4978766;28;20703;-62
2024/03/20 07:57:20;;;;;;;148.93;31.00;;;;;;;;;;4979238;28;20066;-62
2024/03/20 08:00:08;;;;;;;124.43;28.38;;;;;;;;;;4980398;28;20062;-60
2024/03/20 08:02:59;;;;;;;102.25;27.63;;;;;;;;;;4977644;28;20093;-60
2024/03/20 08:05:45;;;;;;;177.48;30.50;;;;;;;;;;4980036;28;20081;-60
2024/03/20 08:08:38;;;;;;;98.72;26.77;;;;;;;;;;4978587;28;20058;-60
2024/03/20 08:11:24;;;;;;;104.57;24.70;;;;;;;;;;4980219;28;20057;-61
2024/03/20 08:14:17;;;;;;;101.45;25.23;;;;;;;;;;4980772;28;20072;-61
2024/03/20 08:17:10;;;;;;;113.32;24.05;;;;;;;;;;4981517;28;20058;-60
2024/03/20 08:20:04;;;;;;;60.15;18.88;;;;;;;;;;4997590;28;20488;-52
2024/03/20 08:22:50;;;;;;;69.57;18.30;;;;;;;;;;4982071;28;20094;-51
2024/03/20 08:25:42;;;;;;;41.85;15.18;;;;;;;;;;4982260;28;20790;-51
2024/03/20 08:28:28;;;;;;;17.75;8.80;;;;;;;;;;4981967;28;20058;-48
2024/03/20 08:31:21;;;;;;;20.90;9.90;;;;;;;;;;4984157;28;20188;-60
2024/03/20 08:34:07;;;;;;;25.90;10.40;;;;;;;;;;4983921;28;20058;-60
2024/03/20 08:37:00;;;;;;;13.23;7.20;;;;;;;;;;4984663;28;20062;-61
2024/03/20 08:39:46;;;;;;;12.45;6.55;;;;;;;;;;4979767;28;20065;-60
2024/03/20 08:42:40;;;;;;;12.15;6.63;;;;;;;;;;4979690;28;20423;-60
2024/03/20 08:45:26;;;;;;;13.07;7.45;;;;;;;;;;4982694;28;20065;-60
2024/03/20 08:48:18;;;;;;;15.52;7.68;;;;;;;;;;4985884;28;20061;-60
2024/03/20 08:51:05;;;;;;;15.02;8.35;;;;;;;;;;4979338;28;20492;-59
2024/03/20 08:53:57;;;;;;;17.33;8.10;;;;;;;;;;4979430;28;20074;-60
2024/03/20 08:56:43;;;;;;;25.30;10.80;;;;;;;;;;4979461;28;20515;-60
2024/03/20 08:59:37;;;;;;;24.63;11.00;;;;;;;;;;4979531;28;20136;-47
2024/03/20 09:02:22;;;;;;;22.98;11.07;;;;;;;;;;4976995;28;20061;-47
2024/03/20 09:05:15;;;;;;;25.33;11.70;;;;;;;;;;4983311;28;20058;-47
2024/03/20 09:08:08;;;;;;;24.73;12.13;;;;;;;;;;4983745;28;22144;-51
2024/03/20 09:11:01;;;;;;;25.67;12.43;;;;;;;;;;4998237;28;20061;-47
2024/03/20 09:13:48;;;;;;;25.90;13.57;;;;;;;;;;4981879;28;20130;-53
2024/03/20 09:16:53;;;;;;;28.42;13.13;;;;;;;;;;4997361;28;20050;-64
2024/03/20 09:19:47;;;;;;;28.45;13.95;;;;;;;;;;4981768;28;20054;-64
2024/03/20 09:22:39;;;;;;;33.72;15.27;;;;;;;;;;4994191;28;20440;-62
2024/03/20 09:25:25;;;;;;;29.45;14.07;;;;;;;;;;4986337;28;20057;-53
2024/03/20 09:28:18;;;;;;;30.55;13.77;;;;;;;;;;4985021;28;20073;-60
2024/03/20 09:31:05;;;;;;;22.08;11.18;;;;;;;;;;4977154;28;20907;-59
2024/03/20 09:33:59;;;;;;;19.08;10.13;;;;;;;;;;4979470;28;20062;-60
2024/03/20 09:36:56;;;;;;;21.20;10.45;;;;;;;;;;4978170;28;20045;-60
2024/03/20 09:39:49;;;;;;;16.83;9.45;;;;;;;;;;4979001;28;20046;-61
2024/03/20 09:42:35;;;;;;;20.90;10.10;;;;;;;;;;4979847;28;20501;-60
2024/03/20 09:45:28;;;;;;;19.27;9.13;;;;;;;;;;4981591;28;20208;-60
2024/03/20 09:48:16;;;;;;;15.20;7.82;;;;;;;;;;4978335;28;20057;-60
2024/03/20 09:51:08;;;;;;;13.20;8.00;;;;;;;;;;4979576;28;20046;-61
2024/03/20 09:53:55;;;;;;;13.27;7.63;;;;;;;;;;4978337;28;20054;-58
2024/03/20 09:56:47;;;;;;;11.85;7.47;;;;;;;;;;4982654;28;20057;-61
2024/03/20 09:59:33;;;;;;;11.63;6.82;;;;;;;;;;4978427;28;20085;-61
2024/03/20 10:02:27;;;;;;;11.18;6.80;;;;;;;;;;4979241;28;20050;-60
2024/03/20 10:05:13;;;;;;;11.95;6.55;;;;;;;;;;4978721;28;20050;-61
2024/03/20 10:08:05;;;;;;;14.20;7.50;;;;;;;;;;4982876;28;21308;-61
2024/03/20 10:10:54;;;;;;;12.75;7.13;;;;;;;;;;4982307;28;20062;-60
2024/03/20 10:13:45;;;;;;;12.13;7.05;;;;;;;;;;5000222;28;20049;-62
2024/03/20 10:16:31;;;;;;;13.18;7.00;;;;;;;;;;4988423;28;20058;-62
2024/03/20 10:19:31;;;;;;;10.77;5.97;;;;;;;;;;4988632;28;20049;-61
2024/03/20 10:22:24;;;;;;;10.55;5.93;;;;;;;;;;4982846;28;20066;-61
2024/03/20 10:25:17;;;;;;;8.48;5.55;;;;;;;;;;4981803;28;20062;-54
2024/03/20 10:28:14;;;;;;;12.60;7.25;;;;;;;;;;4984717;28;20062;-48
2024/03/20 10:31:07;;;;;;;14.45;7.97;;;;;;;;;;4980218;28;20066;-48
2024/03/20 10:34:01;;;;;;;10.65;6.47;;;;;;;;;;4994304;28;20066;-50
2024/03/20 10:36:53;;;;;;;11.00;7.18;;;;;;;;;;4979446;28;20057;-51
2024/03/20 10:39:42;;;;;;;14.57;8.50;;;;;;;;;;4980150;28;20522;-60
2024/03/20 10:42:32;;;;;;;17.33;8.63;;;;;;;;;;4985524;28;20062;-60
2024/03/20 10:45:19;;;;;;;15.57;8.95;;;;;;;;;;4977432;28;20062;-60
2024/03/20 10:48:13;;;;;;;16.13;8.10;;;;;;;;;;4981400;28;20061;-59
2024/03/20 10:50:59;;;;;;;16.75;9.45;;;;;;;;;;4978034;28;20483;-51
2024/03/20 10:53:52;;;;;;;17.52;9.18;;;;;;;;;;4984759;28;20062;-61
2024/03/20 10:56:44;;;;;;;19.15;10.10;;;;;;;;;;4978884;28;20443;-60
2024/03/20 10:59:38;;;;;;;15.30;9.25;;;;;;;;;;4983004;28;20058;-60
2024/03/20 11:02:24;;;;;;;22.00;11.10;;;;;;;;;;4985541;28;21583;-59
2024/03/20 11:05:37;;;;;;;19.13;11.88;;;;;;;;;;4997035;28;20061;-59
2024/03/20 11:08:22;;;;;;;22.90;11.63;;;;;;;;;;4982900;28;20062;-60
2024/03/20 11:11:15;;;;;;;22.27;11.93;;;;;;;;;;4983801;28;20072;-59
2024/03/20 11:14:06;;;;;;;23.13;12.98;;;;;;;;;;4980860;28;20049;-60
2024/03/20 11:17:08;;;;;;;21.70;12.20;;;;;;;;;;4982882;28;20057;-60
2024/03/20 11:20:01;;;;;;;22.45;12.80;;;;;;;;;;4964047;28;20054;-60
2024/03/20 11:22:53;;;;;;;24.45;13.52;;;;;;;;;;4969538;28;20066;-64
2024/03/20 11:25:39;;;;;;;21.95;12.70;;;;;;;;;;4966301;28;20117;-64
2024/03/20 11:28:32;;;;;;;19.60;11.48;;;;;;;;;;4965573;28;20067;-64
2024/03/20 11:31:25;;;;;;;22.42;12.32;;;;;;;;;;4963812;28;20062;-64
2024/03/20 11:34:18;;;;;;;22.27;12.93;;;;;;;;;;4961861;28;20453;-64
2024/03/20 11:37:04;;;;;;;21.17;11.80;;;;;;;;;;4962761;28;20513;-60
2024/03/20 11:39:57;;;;;;;19.90;12.35;;;;;;;;;;4961661;28;20070;-59
2024/03/20 11:42:43;;;;;;;18.63;11.35;;;;;;;;;;4957860;28;20054;-60
2024/03/20 11:45:36;;;;;;;20.88;10.65;;;;;;;;;;4963790;28;20062;-60
2024/03/20 11:48:23;;;;;;;20.80;12.05;;;;;;;;;;4962854;28;20073;-61
2024/03/20 11:51:19;;;;;;;17.83;10.20;;;;;;;;;;4964485;28;20055;-60
2024/03/20 11:54:09;;;;;;;18.98;12.10;;;;;;;;;;4964249;28;20066;-60
2024/03/20 11:57:02;;;;;;;18.92;11.13;;;;;;;;;;4964426;28;20110;-60
2024/03/20 12:00:03;;;;;;;18.20;11.23;;;;;;;;;;4960615;28;20145;-60
2024/03/20 12:03:02;;;;;;;18.63;11.25;;;;;;;;;;4973472;28;20567;-60
2024/03/20 12:05:48;;;;;;;15.88;11.02;;;;;;;;;;4957838;28;20381;-49
2024/03/20 12:08:41;;;;;;;16.55;11.52;;;;;;;;;;4963101;28;20732;-53
2024/03/20 12:11:31;;;;;;;20.33;13.00;;;;;;;;;;4960187;28;20058;-53
2024/03/20 12:14:21;;;;;;;18.88;12.60;;;;;;;;;;4973546;28;20140;-54
2024/03/20 12:17:08;;;;;;;18.48;12.20;;;;;;;;;;4964067;28;20066;-62
2024/03/20 12:20:11;;;;;;;17.08;10.93;;;;;;;;;;4996773;28;20105;-60
2024/03/20 12:22:54;;;;;;;16.50;11.73;;;;;;;;;;4980748;28;20498;-60
2024/03/20 12:25:47;;;;;;;15.88;10.52;;;;;;;;;;4979626;28;20066;-60
2024/03/20 12:28:35;;;;;;;19.13;10.52;;;;;;;;;;4976743;28;20045;-59
2024/03/20 12:31:26;;;;;;;16.27;10.00;;;;;;;;;;4980123;28;21179;-61
2024/03/20 12:34:12;;;;;;;13.15;10.32;;;;;;;;;;4978217;28;20053;-49
2024/03/20 12:37:05;;;;;;;13.23;9.63;;;;;;;;;;4981133;28;20062;-50
2024/03/20 12:39:51;;;;;;;11.55;8.82;;;;;;;;;;4983736;28;20054;-51
2024/03/20 12:42:44;;;;;;;12.60;8.70;;;;;;;;;;4985732;28;20113;-47
2024/03/20 12:45:31;;;;;;;12.20;8.85;;;;;;;;;;4979672;28;20057;-62
2024/03/20 12:48:24;;;;;;;14.13;9.05;;;;;;;;;;4979603;28;20057;-48
2024/03/20 12:51:10;;;;;;;11.40;9.10;;;;;;;;;;4976250;28;20054;-50
2024/03/20 12:54:02;;;;;;;12.25;8.35;;;;;;;;;;4984748;28;20069;-51
2024/03/20 12:56:48;;;;;;;12.18;9.25;;;;;;;;;;4979928;28;20393;-51
2024/03/20 12:59:42;;;;;;;16.90;11.98;;;;;;;;;;4982788;28;20512;-51
2024/03/20 13:02:28;;;;;;;18.42;11.88;;;;;;;;;;4979700;28;20054;-49
2024/03/20 13:05:20;;;;;;;19.33;12.07;;;;;;;;;;4982330;28;20049;-50
2024/03/20 13:08:06;;;;;;;19.27;12.18;;;;;;;;;;4983069;28;20407;-50
2024/03/20 13:10:59;;;;;;;17.00;10.80;;;;;;;;;;4987919;28;20428;-51
2024/03/20 13:13:47;;;;;;;15.18;9.93;;;;;;;;;;4978455;28;20050;-65
2024/03/20 13:16:38;;;;;;;15.07;9.45;;;;;;;;;;4974847;28;20054;-62
2024/03/20 13:19:32;;;;;;;11.60;7.82;;;;;;;;;;4978846;28;20054;-62
2024/03/20 13:22:24;;;;;;;9.23;7.10;;;;;;;;;;4978329;28;20439;-62
2024/03/20 13:25:18;;;;;;;10.73;8.07;;;;;;;;;;4979541;28;20049;-61
2024/03/20 13:28:08;;;;;;;9.57;7.30;;;;;;;;;;4981492;28;20061;-62
2024/03/20 13:31:03;;;;;;;7.68;5.30;;;;;;;;;;4985549;28;20066;-60
2024/03/20 13:33:48;;;;;;;7.25;4.85;;;;;;;;;;4983443;28;20527;-60
2024/03/20 13:36:45;;;;;;;5.57;4.47;;;;;;;;;;4983183;28;20535;-60
2024/03/20 13:39:44;;;;;;;4.70;4.20;;;;;;;;;;4978300;28;20130;-61
2024/03/20 13:42:47;;;;;;;7.32;4.72;;;;;;;;;;4978360;28;20054;-52
2024/03/20 13:45:20;;;;;;;5.13;4.28;;;;;;;;;;4979692;28;20120;-59
2024/03/20 13:48:13;;;;;;;6.85;4.88;;;;;;;;;;4979339;28;20066;-60
2024/03/20 13:51:00;;;;;;;6.10;4.50;;;;;;;;;;4982851;28;20058;-60
2024/03/20 13:53:52;;;;;;;8.27;4.35;;;;;;;;;;4991079;28;20556;-60
2024/03/20 13:56:38;;;;;;;6.55;4.50;;;;;;;;;;4984140;28;20062;-60
2024/03/20 13:59:31;;;;;;;6.18;4.25;;;;;;;;;;4989338;28;20058;-60
2024/03/20 14:02:25;;;;;;;6.45;4.30;;;;;;;;;;4988420;28;20058;-60
2024/03/20 14:05:21;;;;;;;5.90;3.40;;;;;;;;;;4990551;28;20069;-60
2024/03/20 14:08:19;;;;;;;5.68;3.63;;;;;;;;;;4987518;28;20050;-60
2024/03/20 14:11:13;;;;;;;4.10;3.33;;;;;;;;;;4988951;28;20054;-47
2024/03/20 14:13:59;;;;;;;5.78;3.33;;;;;;;;;;4989530;28;20062;-47
2024/03/20 14:16:51;;;;;;;4.80;3.38;;;;;;;;;;4982581;28;20054;-49
2024/03/20 14:19:52;;;;;;;4.90;2.88;;;;;;;;;;4982694;28;20114;-50
2024/03/20 14:22:45;;;;;;;6.00;2.58;;;;;;;;;;4983745;28;21627;-48
2024/03/20 14:25:34;;;;;;;2.90;2.50;;;;;;;;;;4984457;28;20109;-48
2024/03/20 14:28:24;;;;;;;3.08;2.35;;;;;;;;;;4981096;28;20066;-60
2024/03/20 14:31:15;;;;;;;2.40;2.03;;;;;;;;;;4982685;28;20069;-60
2024/03/20 14:34:09;;;;;;;2.03;1.77;;;;;;;;;;4985537;28;20559;-60
2024/03/20 14:36:56;;;;;;;2.10;1.90;;;;;;;;;;4981959;28;20492;-60
2024/03/20 14:39:48;;;;;;;4.35;1.95;;;;;;;;;;4982317;28;20073;-59
2024/03/20 14:42:34;;;;;;;2.50;2.05;;;;;;;;;;4987374;28;20512;-62
2024/03/20 14:45:27;;;;;;;3.78;1.88;;;;;;;;;;4985834;28;20526;-62
2024/03/20 14:48:13;;;;;;;4.45;1.88;;;;;;;;;;4985880;28;20062;-62
2024/03/20 14:51:10;;;;;;;2.75;1.90;;;;;;;;;;4997869;28;20086;-62
2024/03/20 14:53:54;;;;;;;3.38;2.03;;;;;;;;;;4986483;28;20089;-62
2024/03/20 14:56:47;;;;;;;3.17;2.20;;;;;;;;;;4984386;28;20049;-49
2024/03/20 14:59:33;;;;;;;3.53;2.08;;;;;;;;;;4982101;28;20061;-46
2024/03/20 15:02:28;;;;;;;2.88;2.00;;;;;;;;;;4987037;28;20520;-50
2024/03/20 15:05:20;;;;;;;3.75;2.20;;;;;;;;;;4988936;28;20076;-49
2024/03/20 15:08:06;;;;;;;2.70;1.73;;;;;;;;;;4982262;28;20108;-62
2024/03/20 15:10:58;;;;;;;6.18;2.00;;;;;;;;;;4985414;28;20055;-62
2024/03/20 15:13:45;;;;;;;2.15;1.95;;;;;;;;;;4980913;28;20046;-62
2024/03/20 15:16:38;;;;;;;3.38;1.70;;;;;;;;;;4979605;28;20519;-62
2024/03/20 15:19:31;;;;;;;3.25;2.10;;;;;;;;;;4980996;28;20117;-62
2024/03/20 15:22:23;;;;;;;2.28;1.80;;;;;;;;;;4983537;28;20054;-62
2024/03/20 15:25:19;;;;;;;2.45;1.60;;;;;;;;;;4982144;28;20633;-61
2024/03/20 15:28:12;;;;;;;2.17;1.40;;;;;;;;;;4985495;28;20050;-60
2024/03/20 15:31:09;;;;;;;2.95;1.38;;;;;;;;;;4981516;28;20066;-60
2024/03/20 15:33:55;;;;;;;2.50;1.55;;;;;;;;;;4981278;28;20069;-61
2024/03/20 15:36:48;;;;;;;3.08;1.45;;;;;;;;;;4997521;28;20478;-62
2024/03/20 15:39:34;;;;;;;3.90;1.60;;;;;;;;;;4980896;28;20060;-49
2024/03/20 15:42:28;;;;;;;2.20;1.60;;;;;;;;;;4982247;28;20061;-45
2024/03/20 15:45:15;;;;;;;1.67;1.50;;;;;;;;;;4982247;28;20062;-50
2024/03/20 15:48:09;;;;;;;1.85;1.50;;;;;;;;;;4984593;28;20073;-50
2024/03/20 15:51:00;;;;;;;2.30;1.30;;;;;;;;;;4983194;28;20057;-48
2024/03/20 15:53:54;;;;;;;1.85;1.38;;;;;;;;;;4983459;28;20054;-60
2024/03/20 15:56:48;;;;;;;4.00;1.52;;;;;;;;;;4981009;28;20918;-60
2024/03/20 15:59:34;;;;;;;2.03;1.30;;;;;;;;;;4983717;28;20500;-60
2024/03/20 16:02:25;;;;;;;2.17;1.48;;;;;;;;;;4981659;28;20061;-60
2024/03/20 16:05:12;;;;;;;1.73;1.15;;;;;;;;;;4980835;28;20061;-53
2024/03/20 16:08:05;;;;;;;1.73;1.40;;;;;;;;;;4976804;28;20058;-60
2024/03/20 16:10:51;;;;;;;1.42;1.33;;;;;;;;;;4981327;28;20053;-60
2024/03/20 16:13:44;;;;;;;5.03;1.73;;;;;;;;;;4976112;28;20058;-60
2024/03/20 16:16:29;;;;;;;2.20;1.55;;;;;;;;;;4976395;28;20061;-60
2024/03/20 16:19:29;;;;;;;2.00;1.45;;;;;;;;;;4975329;28;20058;-60
2024/03/20 16:22:22;;;;;;;2.00;1.70;;;;;;;;;;4978402;28;20050;-60
2024/03/20 16:25:13;;;;;;;4.70;1.70;;;;;;;;;;4974775;28;20062;-60
2024/03/20 16:28:06;;;;;;;3.75;1.60;;;;;;;;;;4979487;28;20054;-61
2024/03/20 16:30:52;;;;;;;2.13;1.60;;;;;;;;;;4977684;28;20058;-60
2024/03/20 16:33:44;;;;;;;3.65;1.90;;;;;;;;;;4977879;28;20058;-59